createdAt,value
2019-03-31T00:02:00.441Z,50.58
2019-03-31T00:04:26.308Z,50.66
2019-03-31T00:06:52.194Z,50.33
2019-03-31T00:09:18.262Z,50.12
2019-03-31T00:11:44.283Z,50.13
2019-03-31T00:14:10.247Z,50.07
2019-03-31T00:16:36.163Z,50.01
2019-03-31T00:19:02.109Z,49.95
2019-03-31T00:21:28.100Z,50.16
2019-03-31T00:23:53.912Z,50.12
2019-03-31T00:26:19.854Z,50.24
2019-03-31T00:28:45.697Z,50.42
2019-03-31T00:31:21.906Z,50.33
2019-03-31T00:33:40.112Z,50.45
2019-03-31T00:36:05.923Z,50.42
2019-03-31T00:38:31.869Z,50.60
2019-03-31T00:40:57.759Z,51.00
2019-03-31T00:43:23.589Z,51.20
2019-03-31T00:45:49.421Z,51.37
2019-03-31T00:48:15.450Z,51.56
2019-03-31T00:50:41.372Z,51.56
2019-03-31T00:53:07.309Z,51.92
2019-03-31T00:55:33.377Z,51.78
2019-03-31T00:57:59.188Z,52.17
2019-03-31T01:00:45.572Z,52.20
2019-03-31T01:03:11.501Z,52.04
2019-03-31T01:05:40.642Z,51.95
2019-03-31T01:08:06.739Z,51.73
2019-03-31T01:10:32.867Z,51.78
2019-03-31T01:12:59.110Z,51.81
2019-03-31T01:15:26.735Z,51.75
2019-03-31T01:17:53.279Z,51.88
2019-03-31T01:20:19.205Z,51.83
2019-03-31T01:22:45.191Z,51.85
2019-03-31T01:25:12.912Z,51.98
2019-03-31T01:27:39.041Z,52.12
2019-03-31T01:30:05.804Z,52.08
2019-03-31T01:32:31.854Z,52.04
2019-03-31T01:35:01.180Z,51.66
2019-03-31T01:37:27.354Z,51.52
2019-03-31T01:39:54.002Z,51.48
2019-03-31T01:42:20.219Z,51.11
2019-03-31T01:44:46.163Z,51.34
2019-03-31T01:47:13.187Z,51.62
2019-03-31T01:49:39.171Z,51.75
2019-03-31T01:52:05.114Z,51.82
2019-03-31T01:54:30.937Z,52.15
2019-03-31T01:56:56.934Z,52.31
2019-03-31T01:59:22.770Z,52.48
2019-03-31T02:01:48.679Z,52.79
2019-03-31T02:04:14.647Z,52.81
2019-03-31T02:06:40.679Z,52.74
2019-03-31T02:09:06.960Z,52.78
2019-03-31T02:11:33.030Z,52.90
2019-03-31T02:13:58.997Z,52.84
2019-03-31T02:16:25.183Z,52.72
2019-03-31T02:18:51.037Z,52.80
2019-03-31T02:21:16.872Z,52.92
2019-03-31T02:23:42.843Z,52.77
2019-03-31T02:26:08.873Z,52.68
2019-03-31T02:28:34.841Z,52.51
2019-03-31T02:31:00.932Z,52.41
2019-03-31T02:33:26.755Z,52.52
2019-03-31T02:35:52.817Z,52.72
2019-03-31T02:38:18.921Z,52.74
2019-03-31T02:40:44.777Z,52.77
2019-03-31T02:43:10.586Z,52.68
2019-03-31T02:45:36.489Z,52.61
2019-03-31T02:48:02.504Z,52.01
2019-03-31T02:50:38.545Z,52.29
2019-03-31T02:53:04.483Z,52.41
2019-03-31T02:55:30.921Z,52.70
2019-03-31T02:57:56.989Z,52.71
2019-03-31T03:00:23.063Z,52.73
2019-03-31T03:02:49.202Z,53.02
2019-03-31T03:05:20.021Z,53.01
2019-03-31T03:07:46.737Z,52.62
2019-03-31T03:10:12.747Z,52.62
2019-03-31T03:12:40.506Z,52.70
2019-03-31T03:15:06.551Z,52.88
2019-03-31T03:17:32.530Z,52.84
2019-03-31T03:19:58.364Z,53.16
2019-03-31T03:22:24.254Z,53.17
2019-03-31T03:24:50.080Z,53.17
2019-03-31T03:27:15.890Z,53.81
2019-03-31T03:29:41.890Z,53.86
2019-03-31T03:32:07.949Z,53.83
2019-03-31T03:34:34.116Z,53.85
2019-03-31T03:37:00.086Z,54.07
2019-03-31T03:39:25.928Z,53.93
2019-03-31T03:41:51.759Z,53.78
2019-03-31T03:44:17.614Z,53.15
2019-03-31T03:46:43.465Z,53.10
2019-03-31T03:49:09.529Z,53.40
2019-03-31T03:51:35.815Z,53.37
2019-03-31T03:54:01.663Z,53.24
2019-03-31T03:56:29.264Z,53.37
2019-03-31T03:58:55.372Z,53.49
2019-03-31T04:01:22.277Z,53.45
2019-03-31T04:03:48.068Z,53.70
2019-03-31T04:06:14.124Z,53.87
2019-03-31T04:08:40.093Z,53.88
2019-03-31T04:11:12.151Z,54.22
2019-03-31T04:13:37.990Z,54.42
2019-03-31T04:16:03.935Z,54.86
2019-03-31T04:18:29.784Z,54.59
2019-03-31T04:20:55.655Z,54.37
2019-03-31T04:23:21.490Z,54.43
2019-03-31T04:25:47.323Z,54.24
2019-03-31T04:28:13.310Z,54.53
2019-03-31T04:30:39.145Z,54.59
2019-03-31T04:33:05.134Z,54.19
2019-03-31T04:35:30.970Z,54.03
2019-03-31T04:37:56.893Z,54.10
2019-03-31T04:40:22.807Z,54.28
2019-03-31T04:42:48.634Z,54.13
2019-03-31T04:45:14.579Z,54.30
2019-03-31T04:47:40.534Z,54.19
2019-03-31T04:50:06.972Z,54.33
2019-03-31T04:52:32.893Z,54.46
2019-03-31T04:54:58.817Z,54.45
2019-03-31T04:57:24.657Z,54.59
2019-03-31T04:59:50.547Z,54.50
2019-03-31T05:02:16.390Z,54.86
2019-03-31T05:04:42.298Z,55.01
2019-03-31T05:07:08.191Z,54.78
2019-03-31T05:09:34.031Z,54.82
2019-03-31T05:12:00.013Z,54.59
2019-03-31T05:14:25.888Z,54.64
2019-03-31T05:16:51.733Z,54.48
2019-03-31T05:19:17.686Z,54.08
2019-03-31T05:21:43.656Z,54.12
2019-03-31T05:24:09.487Z,54.20
2019-03-31T05:26:35.342Z,54.17
2019-03-31T05:29:01.208Z,53.93
2019-03-31T05:31:27.148Z,54.02
2019-03-31T05:33:53.002Z,54.09
2019-03-31T05:36:18.863Z,54.13
2019-03-31T05:38:44.680Z,54.32
2019-03-31T05:41:10.674Z,54.32
2019-03-31T05:43:36.599Z,54.25
2019-03-31T05:46:02.651Z,54.51
2019-03-31T05:48:28.515Z,54.52
2019-03-31T05:50:54.349Z,54.36
2019-03-31T05:53:20.187Z,53.99
2019-03-31T05:55:46.190Z,53.76
2019-03-31T05:58:12.009Z,53.68
2019-03-31T06:00:39.915Z,53.42
2019-03-31T06:03:05.890Z,53.55
2019-03-31T06:05:31.827Z,53.43
2019-03-31T06:07:57.713Z,53.18
2019-03-31T06:10:23.654Z,52.92
2019-03-31T06:12:49.724Z,52.82
2019-03-31T06:15:15.660Z,52.71
2019-03-31T06:17:41.497Z,52.47
2019-03-31T06:20:07.436Z,51.75
2019-03-31T06:22:33.305Z,51.79
2019-03-31T06:24:59.157Z,51.88
2019-03-31T06:27:24.992Z,51.71
2019-03-31T06:29:51.046Z,51.76
2019-03-31T06:32:17.023Z,51.82
2019-03-31T06:34:47.645Z,51.59
2019-03-31T06:37:10.631Z,51.51
2019-03-31T06:39:36.476Z,51.07
2019-03-31T06:42:02.588Z,50.98
2019-03-31T06:44:28.438Z,50.75
2019-03-31T06:46:54.277Z,50.66
2019-03-31T06:49:20.249Z,50.45
2019-03-31T06:51:46.103Z,50.26
2019-03-31T06:54:12.119Z,49.86
2019-03-31T06:56:38.033Z,49.47
2019-03-31T06:59:03.873Z,49.10
2019-03-31T07:01:29.701Z,48.58
2019-03-31T07:03:55.579Z,48.19
2019-03-31T07:06:21.511Z,48.02
2019-03-31T07:08:47.481Z,47.54
2019-03-31T07:11:13.430Z,47.34
2019-03-31T07:13:39.313Z,46.77
2019-03-31T07:16:05.220Z,46.80
2019-03-31T07:18:31.174Z,46.49
2019-03-31T07:20:57.008Z,46.48
2019-03-31T07:23:22.855Z,46.64
2019-03-31T07:25:48.704Z,46.18
2019-03-31T07:28:14.649Z,45.95
2019-03-31T07:30:40.411Z,45.44
2019-03-31T07:33:06.310Z,45.10
2019-03-31T07:35:32.221Z,45.00
2019-03-31T07:37:58.049Z,44.51
2019-03-31T07:40:24.306Z,43.92
2019-03-31T07:42:51.324Z,43.52
2019-03-31T07:45:17.675Z,43.15
2019-03-31T07:47:43.961Z,42.67
2019-03-31T07:50:12.463Z,42.11
2019-03-31T07:52:38.481Z,41.87
2019-03-31T07:55:05.193Z,41.52
2019-03-31T07:57:31.231Z,40.85
2019-03-31T07:59:57.112Z,40.69
2019-03-31T08:02:22.961Z,40.46
2019-03-31T08:04:48.796Z,39.29
2019-03-31T08:07:14.725Z,38.56
2019-03-31T08:09:40.606Z,38.57
2019-03-31T08:12:06.661Z,38.22
2019-03-31T08:14:32.493Z,38.10
2019-03-31T08:16:58.481Z,37.78
2019-03-31T08:19:24.298Z,37.53
2019-03-31T08:21:50.136Z,37.42
2019-03-31T08:24:16.200Z,36.97
2019-03-31T08:26:42.045Z,37.31
2019-03-31T08:29:07.897Z,36.84
2019-03-31T08:31:33.729Z,36.57
2019-03-31T08:33:59.584Z,37.06
2019-03-31T08:36:25.438Z,36.63
2019-03-31T08:38:51.278Z,36.29
2019-03-31T08:41:17.148Z,36.28
2019-03-31T08:43:42.957Z,35.81
2019-03-31T08:46:08.785Z,35.91
2019-03-31T08:48:34.666Z,35.84
2019-03-31T08:51:00.510Z,35.80
2019-03-31T08:53:30.587Z,35.63
2019-03-31T08:55:56.468Z,35.36
2019-03-31T08:58:22.399Z,35.33
2019-03-31T09:00:50.266Z,35.24
2019-03-31T09:03:16.186Z,35.78
2019-03-31T09:05:42.168Z,35.87
2019-03-31T09:08:07.987Z,35.76
2019-03-31T09:10:33.843Z,35.30
2019-03-31T09:12:59.731Z,35.08
2019-03-31T09:15:25.582Z,35.03
2019-03-31T09:17:54.032Z,34.91
2019-03-31T09:20:19.347Z,34.80
2019-03-31T09:22:45.171Z,34.55
2019-03-31T09:25:11.396Z,34.46
2019-03-31T09:27:37.406Z,34.26
2019-03-31T09:30:06.847Z,34.19
2019-03-31T09:32:32.773Z,34.17
2019-03-31T09:34:58.766Z,34.77
2019-03-31T09:37:24.592Z,34.54
2019-03-31T09:39:50.413Z,34.40
2019-03-31T09:42:16.307Z,33.97
2019-03-31T09:44:42.341Z,33.97
2019-03-31T09:47:08.270Z,33.64
2019-03-31T09:49:34.156Z,33.47
2019-03-31T09:52:00.088Z,33.06
2019-03-31T09:54:29.396Z,33.26
2019-03-31T09:56:55.216Z,32.85
2019-03-31T09:59:21.259Z,32.67
2019-03-31T10:01:47.252Z,32.55
2019-03-31T10:04:13.172Z,32.75
2019-03-31T10:06:39.101Z,33.04
2019-03-31T10:09:05.296Z,32.46
2019-03-31T10:11:31.239Z,31.50
2019-03-31T10:13:57.068Z,31.75
2019-03-31T10:16:23.165Z,30.91
2019-03-31T10:18:48.992Z,31.18
2019-03-31T10:21:14.865Z,31.18
2019-03-31T10:23:40.701Z,31.69
2019-03-31T10:26:06.635Z,31.80
2019-03-31T10:28:32.619Z,31.53
2019-03-31T10:30:58.484Z,31.11
2019-03-31T10:33:24.289Z,31.04
2019-03-31T10:35:50.183Z,30.38
2019-03-31T10:38:16.102Z,30.68
2019-03-31T10:40:42.062Z,30.67
2019-03-31T10:43:08.117Z,30.65
2019-03-31T10:45:34.161Z,30.14
2019-03-31T10:47:59.983Z,30.25
2019-03-31T10:50:26.029Z,30.16
2019-03-31T10:52:51.875Z,30.38
2019-03-31T10:55:17.867Z,30.45
2019-03-31T10:57:43.810Z,29.84
2019-03-31T11:00:10.338Z,29.18
2019-03-31T11:02:36.343Z,29.55
2019-03-31T11:05:04.553Z,28.82
2019-03-31T11:07:30.491Z,28.25
2019-03-31T11:09:56.402Z,28.29
2019-03-31T11:12:22.223Z,28.98
2019-03-31T11:14:48.253Z,28.71
2019-03-31T11:17:14.228Z,28.19
2019-03-31T11:19:40.169Z,28.69
2019-03-31T11:22:20.191Z,27.96
2019-03-31T11:24:46.266Z,27.41
2019-03-31T11:27:12.115Z,27.07
2019-03-31T11:29:38.062Z,27.52
2019-03-31T11:32:03.914Z,27.39
2019-03-31T11:34:29.902Z,27.17
2019-03-31T11:36:55.826Z,27.45
2019-03-31T11:39:21.968Z,28.13
2019-03-31T11:41:47.796Z,27.88
2019-03-31T11:44:13.773Z,27.04
2019-03-31T11:46:39.699Z,27.09
2019-03-31T11:49:05.739Z,27.29
2019-03-31T11:51:31.607Z,26.93
2019-03-31T11:53:57.461Z,26.58
2019-03-31T11:56:23.332Z,26.38
2019-03-31T11:58:49.219Z,26.29
2019-03-31T12:01:15.359Z,26.27
2019-03-31T12:03:41.412Z,25.89
2019-03-31T12:06:11.050Z,25.59
2019-03-31T12:08:35.456Z,25.23
2019-03-31T12:11:01.312Z,25.58
2019-03-31T12:13:27.202Z,24.93
2019-03-31T12:15:53.028Z,25.47
2019-03-31T12:18:18.900Z,24.69
2019-03-31T12:20:44.826Z,24.63
2019-03-31T12:23:10.658Z,24.21
2019-03-31T12:25:36.604Z,25.43
2019-03-31T12:28:02.665Z,25.81
2019-03-31T12:30:28.846Z,25.29
2019-03-31T12:32:56.296Z,24.61
2019-03-31T12:35:22.245Z,24.21
2019-03-31T12:37:48.301Z,23.91
2019-03-31T12:40:17.933Z,24.30
2019-03-31T12:42:43.899Z,23.43
2019-03-31T12:45:10.055Z,22.31
2019-03-31T12:47:35.864Z,21.72
2019-03-31T12:50:03.352Z,22.73
2019-03-31T12:52:29.358Z,22.97
2019-03-31T12:54:55.183Z,22.43
2019-03-31T12:57:21.078Z,21.81
2019-03-31T12:59:46.893Z,21.85
2019-03-31T13:02:12.728Z,21.17
2019-03-31T13:04:38.713Z,21.53
2019-03-31T13:07:04.651Z,20.46
2019-03-31T13:09:30.576Z,18.50
2019-03-31T13:11:56.551Z,16.37
2019-03-31T13:14:22.501Z,17.41
2019-03-31T13:16:48.339Z,16.41
2019-03-31T13:19:14.306Z,16.99
2019-03-31T13:21:40.124Z,15.69
2019-03-31T13:24:06.177Z,14.08
2019-03-31T13:26:32.227Z,16.05
2019-03-31T13:28:58.059Z,16.19
2019-03-31T13:31:23.888Z,14.84
2019-03-31T13:33:49.771Z,15.27
2019-03-31T13:36:15.796Z,14.72
2019-03-31T13:38:41.612Z,15.07
2019-03-31T13:41:07.721Z,14.59
2019-03-31T13:43:33.596Z,15.44
2019-03-31T13:46:00.314Z,14.28
2019-03-31T13:48:26.335Z,13.88
2019-03-31T13:50:52.152Z,13.41
2019-03-31T13:53:18.007Z,14.42
2019-03-31T13:55:43.868Z,15.61
2019-03-31T13:58:10.839Z,13.05
2019-03-31T14:00:40.674Z,13.30
2019-03-31T14:03:07.163Z,14.43
2019-03-31T14:05:33.195Z,14.02
2019-03-31T14:07:59.126Z,13.40
2019-03-31T14:10:24.950Z,12.30
2019-03-31T14:12:50.796Z,12.24
2019-03-31T14:15:19.383Z,14.27
2019-03-31T14:17:44.460Z,15.65
2019-03-31T14:20:10.496Z,13.92
2019-03-31T14:22:36.372Z,12.48
2019-03-31T14:25:04.002Z,12.36
2019-03-31T14:27:29.828Z,13.97
2019-03-31T14:29:55.725Z,12.51
2019-03-31T14:32:21.586Z,12.10
2019-03-31T14:34:47.481Z,11.96
2019-03-31T14:37:13.466Z,12.25
2019-03-31T14:39:39.297Z,12.39
2019-03-31T14:42:05.327Z,13.14
2019-03-31T14:44:31.329Z,11.70
2019-03-31T14:46:57.269Z,11.75
2019-03-31T14:49:25.702Z,12.39
2019-03-31T14:51:50.914Z,13.58
2019-03-31T14:54:16.835Z,13.71
2019-03-31T14:56:42.766Z,13.06
2019-03-31T14:59:08.884Z,12.22
2019-03-31T15:01:34.705Z,10.49
2019-03-31T15:04:00.514Z,11.80
2019-03-31T15:06:26.527Z,12.76
2019-03-31T15:08:54.486Z,12.74
2019-03-31T15:11:21.997Z,12.77
2019-03-31T15:13:48.321Z,13.37
2019-03-31T15:16:14.174Z,11.33
2019-03-31T15:18:40.006Z,11.95
2019-03-31T15:21:05.907Z,11.89
2019-03-31T15:23:31.757Z,11.78
2019-03-31T15:25:57.598Z,10.93
2019-03-31T15:28:23.443Z,11.97
2019-03-31T15:30:49.283Z,10.48
2019-03-31T15:33:15.552Z,12.36
2019-03-31T15:35:41.402Z,12.83
2019-03-31T15:38:07.234Z,12.99
2019-03-31T15:40:33.181Z,14.34
2019-03-31T15:42:59.115Z,10.95
2019-03-31T15:45:25.004Z,12.33
2019-03-31T15:47:50.886Z,13.58
2019-03-31T15:50:17.139Z,13.27
2019-03-31T15:52:43.123Z,13.52
2019-03-31T15:55:09.660Z,11.08
2019-03-31T15:57:35.499Z,12.43
2019-03-31T16:00:01.738Z,12.47
2019-03-31T16:02:29.539Z,13.46
2019-03-31T16:04:55.388Z,14.08
2019-03-31T16:07:21.337Z,14.23
2019-03-31T16:09:47.367Z,14.34
2019-03-31T16:12:13.243Z,14.97
2019-03-31T16:14:39.071Z,14.77
2019-03-31T16:17:05.025Z,16.19
2019-03-31T16:19:30.982Z,15.26
2019-03-31T16:21:56.850Z,15.93
2019-03-31T16:24:24.602Z,16.19
2019-03-31T16:26:52.970Z,15.54
2019-03-31T16:29:18.248Z,15.00
2019-03-31T16:31:44.125Z,14.05
2019-03-31T16:34:10.006Z,15.63
2019-03-31T16:36:35.873Z,13.21
2019-03-31T16:39:01.694Z,14.04
2019-03-31T16:41:27.563Z,14.98
2019-03-31T16:43:53.496Z,15.87
2019-03-31T16:46:19.391Z,17.61
2019-03-31T16:48:45.260Z,16.40
2019-03-31T16:51:11.087Z,16.92
2019-03-31T16:53:36.998Z,16.87
2019-03-31T16:56:03.094Z,16.50
2019-03-31T16:58:28.937Z,16.86
2019-03-31T17:00:54.895Z,16.83
2019-03-31T17:03:20.767Z,16.09
2019-03-31T17:05:46.634Z,17.38
2019-03-31T17:08:12.530Z,18.93
2019-03-31T17:10:38.570Z,19.45
2019-03-31T17:13:04.560Z,19.29
2019-03-31T17:15:30.407Z,19.21
2019-03-31T17:17:56.245Z,19.53
2019-03-31T17:20:22.203Z,19.40
2019-03-31T17:22:48.083Z,20.55
2019-03-31T17:25:13.986Z,20.95
2019-03-31T17:27:39.837Z,20.72
2019-03-31T17:30:07.191Z,21.02
2019-03-31T17:32:33.102Z,21.24
2019-03-31T17:34:59.051Z,21.60
2019-03-31T17:37:24.859Z,21.80
2019-03-31T17:40:05.143Z,21.75
2019-03-31T17:42:18.885Z,22.08
2019-03-31T17:44:44.847Z,22.17
2019-03-31T17:47:10.740Z,22.31
2019-03-31T17:49:36.617Z,22.42
2019-03-31T17:52:02.602Z,22.79
2019-03-31T17:54:28.522Z,22.93
2019-03-31T17:56:54.350Z,22.92
2019-03-31T17:59:20.222Z,23.58
2019-03-31T18:01:46.289Z,23.84
2019-03-31T18:04:12.210Z,23.92
2019-03-31T18:06:38.038Z,24.21
2019-03-31T18:09:06.908Z,24.35
2019-03-31T18:11:32.756Z,24.82
2019-03-31T18:13:58.651Z,25.25
2019-03-31T18:16:24.647Z,25.66
2019-03-31T18:18:50.801Z,26.22
2019-03-31T18:21:16.783Z,26.95
2019-03-31T18:23:42.663Z,27.89
2019-03-31T18:26:08.687Z,28.59
2019-03-31T18:28:34.534Z,29.04
2019-03-31T18:31:00.505Z,29.32
2019-03-31T18:33:26.433Z,29.37
2019-03-31T18:35:52.577Z,29.46
2019-03-31T18:38:18.930Z,29.52
2019-03-31T18:40:48.128Z,29.60
2019-03-31T18:43:13.952Z,29.88
2019-03-31T18:45:39.843Z,30.02
2019-03-31T18:48:05.912Z,30.08
2019-03-31T18:50:31.973Z,29.95
2019-03-31T18:53:01.958Z,29.74
2019-03-31T18:55:41.592Z,30.03
2019-03-31T18:58:27.743Z,30.30
2019-03-31T19:00:58.413Z,30.74
2019-03-31T19:03:34.937Z,31.12
2019-03-31T19:06:05.724Z,31.16
2019-03-31T19:08:51.748Z,31.13
2019-03-31T19:11:25.383Z,31.04
2019-03-31T19:14:09.748Z,31.36
2019-03-31T19:16:55.681Z,31.54
2019-03-31T19:19:29.255Z,31.54
2019-03-31T19:22:12.116Z,31.63
2019-03-31T19:24:46.286Z,31.59
2019-03-31T19:27:22.890Z,31.09
2019-03-31T19:29:53.497Z,30.93
2019-03-31T19:32:27.042Z,30.66
2019-03-31T19:34:54.925Z,30.83
2019-03-31T19:37:34.673Z,31.04
2019-03-31T19:40:19.306Z,31.30
2019-03-31T19:42:47.145Z,31.31
2019-03-31T19:45:23.956Z,31.61
2019-03-31T19:47:51.924Z,31.72
2019-03-31T19:50:31.836Z,31.67
2019-03-31T19:53:16.315Z,31.89
2019-03-31T19:55:49.961Z,31.96
2019-03-31T19:58:17.702Z,32.05
2019-03-31T20:00:45.728Z,32.11
2019-03-31T20:03:22.812Z,32.19
2019-03-31T20:05:59.922Z,32.17
2019-03-31T20:08:44.504Z,32.55
2019-03-31T20:11:18.051Z,32.76
2019-03-31T20:14:11.090Z,33.15
2019-03-31T20:16:45.211Z,33.40
2019-03-31T20:19:15.771Z,33.37
2019-03-31T20:21:52.549Z,33.27
2019-03-31T20:24:29.302Z,33.29
2019-03-31T20:26:57.308Z,33.60
2019-03-31T20:29:35.802Z,33.55
2019-03-31T20:32:19.230Z,33.76
2019-03-31T20:34:53.187Z,33.90
2019-03-31T20:37:26.093Z,33.69
2019-03-31T20:39:56.915Z,33.62
2019-03-31T20:42:39.131Z,33.73
2019-03-31T20:45:06.339Z,33.95
2019-03-31T20:47:34.307Z,33.86
2019-03-31T20:50:00.440Z,33.98
2019-03-31T20:52:26.659Z,34.09
2019-03-31T20:54:52.844Z,34.04
2019-03-31T20:57:18.940Z,33.84
2019-03-31T20:59:45.220Z,33.79
2019-03-31T21:02:13.137Z,33.85
2019-03-31T21:04:39.350Z,33.94
2019-03-31T21:07:05.296Z,34.13
2019-03-31T21:09:44.204Z,34.38
2019-03-31T21:11:59.188Z,34.97
2019-03-31T21:14:25.020Z,35.30
2019-03-31T21:16:50.970Z,35.51
2019-03-31T21:19:19.134Z,36.12
2019-03-31T21:21:44.758Z,36.43
2019-03-31T21:24:10.683Z,36.56
2019-03-31T21:26:36.527Z,36.62
2019-03-31T21:29:02.339Z,36.73
2019-03-31T21:31:28.431Z,36.30
2019-03-31T21:33:54.513Z,36.27
2019-03-31T21:36:20.355Z,35.85
2019-03-31T21:38:46.504Z,35.60
2019-03-31T21:41:14.126Z,35.73
2019-03-31T21:43:40.315Z,35.74
2019-03-31T21:46:06.335Z,35.77
2019-03-31T21:48:34.069Z,35.83
2019-03-31T21:50:59.929Z,35.74
2019-03-31T21:53:28.859Z,35.75
2019-03-31T21:55:54.723Z,36.19
2019-03-31T21:58:20.591Z,36.09
2019-03-31T22:00:51.300Z,36.12
2019-03-31T22:03:19.611Z,36.12
2019-03-31T22:05:45.718Z,35.98
2019-03-31T22:08:11.539Z,36.55
2019-03-31T22:10:37.376Z,36.85
2019-03-31T22:13:03.249Z,37.15
2019-03-31T22:15:29.073Z,37.37
2019-03-31T22:17:55.036Z,37.39
2019-03-31T22:20:21.616Z,37.19
2019-03-31T22:22:47.452Z,36.77
2019-03-31T22:25:13.459Z,36.76
2019-03-31T22:27:39.446Z,36.76
2019-03-31T22:30:05.730Z,36.53
2019-03-31T22:32:31.640Z,36.78
2019-03-31T22:34:57.818Z,36.86
2019-03-31T22:37:29.818Z,37.11
2019-03-31T22:39:59.104Z,37.51
2019-03-31T22:42:25.028Z,37.55
2019-03-31T22:44:50.859Z,37.86
2019-03-31T22:47:20.020Z,37.93
2019-03-31T22:49:48.869Z,38.09
2019-03-31T22:52:14.751Z,38.30
2019-03-31T22:54:43.486Z,38.20
2019-03-31T22:57:09.303Z,38.24
2019-03-31T22:59:35.279Z,38.23
2019-03-31T23:02:01.519Z,38.17
2019-03-31T23:04:27.352Z,38.20
2019-03-31T23:06:54.455Z,38.29
2019-03-31T23:09:20.305Z,38.16
2019-03-31T23:11:46.246Z,38.33
2019-03-31T23:14:12.193Z,38.50
2019-03-31T23:16:38.335Z,38.46
2019-03-31T23:19:04.341Z,38.66
2019-03-31T23:21:30.165Z,38.92
2019-03-31T23:23:56.005Z,39.30
2019-03-31T23:26:21.961Z,39.45
2019-03-31T23:28:47.786Z,39.41
2019-03-31T23:31:15.197Z,39.65
2019-03-31T23:33:41.186Z,39.49
2019-03-31T23:36:07.122Z,39.25
2019-03-31T23:38:32.965Z,39.36
2019-03-31T23:40:58.945Z,39.16
2019-03-31T23:43:24.849Z,39.32
2019-03-31T23:45:50.791Z,39.25
2019-03-31T23:48:16.636Z,39.33
2019-03-31T23:50:42.558Z,39.43
2019-03-31T23:53:08.380Z,39.55
2019-03-31T23:55:34.214Z,39.57
2019-03-31T23:58:00.272Z,39.45
